createdAt,value
2022-10-11T00:02:26.459Z,44.24
2022-10-11T00:05:04.298Z,44.43
2022-10-11T00:07:42.306Z,44.23
2022-10-11T00:10:21.154Z,44.25
2022-10-11T00:12:59.407Z,44.50
2022-10-11T00:15:39.291Z,44.21
2022-10-11T00:18:16.702Z,44.13
2022-10-11T00:21:05.569Z,44.03
2022-10-11T00:23:44.866Z,44.18
2022-10-11T00:26:22.984Z,44.48
2022-10-11T00:29:01.918Z,44.17
2022-10-11T00:31:40.978Z,44.36
2022-10-11T00:34:19.174Z,44.57
2022-10-11T00:36:57.367Z,44.64
2022-10-11T00:39:34.241Z,44.38
2022-10-11T00:42:15.924Z,44.39
2022-10-11T00:45:27.315Z,44.43
2022-10-11T00:48:11.889Z,44.30
2022-10-11T00:50:49.506Z,44.53
2022-10-11T00:53:28.831Z,44.57
2022-10-11T00:56:13.226Z,44.38
2022-10-11T00:58:52.859Z,44.39
2022-10-11T01:01:32.654Z,44.42
2022-10-11T01:04:10.573Z,42.57
2022-10-11T01:06:49.410Z,42.73
2022-10-11T01:09:28.793Z,43.36
2022-10-11T01:12:16.273Z,43.02
2022-10-11T01:15:17.091Z,42.42
2022-10-11T01:18:05.860Z,42.49
2022-10-11T01:20:45.027Z,42.52
2022-10-11T01:23:44.547Z,42.69
2022-10-11T01:27:08.998Z,42.75
2022-10-11T01:29:53.405Z,43.95
2022-10-11T01:32:44.425Z,44.01
2022-10-11T01:35:42.047Z,44.39
2022-10-11T01:38:35.308Z,44.67
2022-10-11T01:41:24.761Z,44.59
2022-10-11T01:44:02.984Z,43.99
2022-10-11T01:46:41.209Z,43.12
2022-10-11T01:49:19.992Z,43.22
2022-10-11T01:52:00.996Z,43.17
2022-10-11T01:55:09.887Z,43.17
2022-10-11T01:57:54.902Z,43.13
2022-10-11T02:01:17.959Z,42.93
2022-10-11T02:04:06.487Z,43.14
2022-10-11T02:07:13.344Z,43.06
2022-10-11T02:10:34.540Z,42.76
2022-10-11T02:13:27.251Z,42.54
2022-10-11T02:16:08.855Z,42.45
2022-10-11T02:18:48.952Z,42.52
2022-10-11T02:21:28.541Z,42.25
2022-10-11T02:24:09.874Z,42.22
2022-10-11T02:26:54.146Z,41.67
2022-10-11T02:29:34.225Z,41.69
2022-10-11T02:32:12.882Z,41.63
2022-10-11T02:34:56.155Z,42.42
2022-10-11T02:37:59.084Z,41.67
2022-10-11T02:40:38.168Z,41.19
2022-10-11T02:43:33.399Z,40.85
2022-10-11T02:46:11.030Z,41.00
2022-10-11T02:48:49.165Z,41.42
2022-10-11T02:51:30.127Z,41.51
2022-10-11T02:54:09.162Z,42.09
2022-10-11T02:56:47.539Z,42.17
2022-10-11T02:59:26.769Z,42.11
2022-10-11T03:02:04.912Z,42.28
2022-10-11T03:04:43.570Z,42.16
2022-10-11T03:07:21.789Z,41.94
2022-10-11T03:09:59.996Z,41.82
2022-10-11T03:12:38.676Z,41.61
2022-10-11T03:15:17.980Z,41.31
2022-10-11T03:17:56.245Z,41.83
2022-10-11T03:20:34.753Z,41.56
2022-10-11T03:23:13.167Z,40.54
2022-10-11T03:25:52.388Z,40.39
2022-10-11T03:28:30.670Z,40.27
2022-10-11T03:31:09.502Z,40.26
2022-10-11T03:33:48.592Z,39.96
2022-10-11T03:36:26.783Z,40.13
2022-10-11T03:39:05.059Z,40.90
2022-10-11T03:41:43.935Z,41.29
2022-10-11T03:44:23.506Z,39.99
2022-10-11T03:47:03.606Z,39.74
2022-10-11T03:49:43.743Z,39.58
2022-10-11T03:52:22.024Z,39.67
2022-10-11T03:55:00.192Z,39.55
2022-10-11T03:57:38.943Z,39.55
2022-10-11T04:00:17.346Z,39.59
2022-10-11T04:02:56.531Z,40.37
2022-10-11T04:05:35.322Z,40.72
2022-10-11T04:08:20.894Z,41.14
2022-10-11T04:11:00.315Z,41.04
2022-10-11T04:13:39.512Z,40.79
2022-10-11T04:16:18.855Z,40.71
2022-10-11T04:18:57.769Z,41.14
2022-10-11T04:21:37.748Z,41.58
2022-10-11T04:24:17.285Z,42.62
2022-10-11T04:26:55.490Z,43.54
2022-10-11T04:29:35.136Z,44.56
2022-10-11T04:32:13.430Z,43.90
2022-10-11T04:34:51.629Z,43.54
2022-10-11T04:37:29.867Z,43.15
2022-10-11T04:40:10.531Z,42.95
2022-10-11T04:42:50.630Z,42.75
2022-10-11T04:45:28.735Z,42.78
2022-10-11T04:48:06.849Z,42.83
2022-10-11T04:50:46.085Z,42.70
2022-10-11T04:53:29.377Z,42.52
2022-10-11T04:56:11.244Z,43.92
2022-10-11T04:58:49.545Z,44.12
2022-10-11T05:01:27.380Z,44.25
2022-10-11T05:04:06.383Z,43.87
2022-10-11T05:06:46.083Z,43.14
2022-10-11T05:09:26.763Z,42.99
2022-10-11T05:12:06.174Z,42.71
2022-10-11T05:14:45.460Z,42.75
2022-10-11T05:17:24.108Z,42.48
2022-10-11T05:20:02.997Z,42.69
2022-10-11T05:22:41.021Z,42.49
2022-10-11T05:25:20.433Z,42.14
2022-10-11T05:28:00.551Z,42.22
2022-10-11T05:30:39.311Z,41.61
2022-10-11T05:33:16.333Z,41.79
2022-10-11T05:35:57.428Z,41.98
2022-10-11T05:38:39.363Z,41.39
2022-10-11T05:41:17.670Z,41.39
2022-10-11T05:43:56.239Z,41.49
2022-10-11T05:46:35.479Z,41.65
2022-10-11T05:49:15.067Z,41.83
2022-10-11T05:51:54.982Z,41.91
2022-10-11T05:54:34.421Z,41.50
2022-10-11T05:57:14.754Z,42.57
2022-10-11T05:59:53.926Z,42.68
2022-10-11T06:02:33.947Z,42.34
2022-10-11T06:05:13.912Z,42.32
2022-10-11T06:07:52.899Z,42.47
2022-10-11T06:10:31.198Z,42.63
2022-10-11T06:13:08.012Z,42.50
2022-10-11T06:15:45.408Z,41.03
2022-10-11T06:18:41.396Z,41.28
2022-10-11T06:21:20.806Z,41.62
2022-10-11T06:24:17.697Z,42.13
2022-10-11T06:27:13.754Z,42.28
2022-10-11T06:29:52.403Z,42.14
2022-10-11T06:32:50.041Z,41.68
2022-10-11T06:35:59.353Z,41.66
2022-10-11T06:38:55.267Z,41.38
2022-10-11T06:41:51.310Z,41.27
2022-10-11T06:44:48.645Z,40.45
2022-10-11T06:47:45.506Z,40.09
2022-10-11T06:50:59.115Z,40.64
2022-10-11T06:53:57.765Z,40.73
2022-10-11T06:57:08.913Z,40.39
2022-10-11T07:00:09.047Z,40.10
2022-10-11T07:03:20.741Z,39.87
2022-10-11T07:06:20.060Z,39.98
2022-10-11T07:09:19.551Z,40.54
2022-10-11T07:12:12.179Z,41.00
2022-10-11T07:15:13.681Z,41.49
2022-10-11T07:18:09.056Z,41.43
2022-10-11T07:21:10.553Z,41.93
2022-10-11T07:24:07.712Z,41.35
2022-10-11T07:27:12.945Z,42.22
2022-10-11T07:29:51.097Z,42.02
2022-10-11T07:32:29.794Z,42.25
2022-10-11T07:35:43.744Z,42.53
2022-10-11T07:38:44.155Z,42.55
2022-10-11T07:41:51.075Z,42.46
2022-10-11T07:44:59.476Z,42.49
2022-10-11T07:47:58.013Z,42.34
2022-10-11T07:51:26.490Z,42.10
2022-10-11T07:54:22.763Z,41.42
2022-10-11T07:57:15.720Z,41.26
2022-10-11T08:00:15.218Z,41.20
2022-10-11T08:03:09.295Z,41.25
2022-10-11T08:06:06.600Z,40.98
2022-10-11T08:09:02.833Z,41.29
2022-10-11T08:11:55.827Z,41.53
2022-10-11T08:14:51.320Z,41.19
2022-10-11T08:17:47.543Z,40.98
2022-10-11T08:20:51.974Z,40.80
2022-10-11T08:23:49.844Z,41.08
2022-10-11T08:26:27.316Z,40.70
2022-10-11T08:29:32.738Z,40.93
2022-10-11T08:32:29.581Z,40.96
2022-10-11T08:35:24.663Z,39.92
2022-10-11T08:38:29.892Z,40.26
2022-10-11T08:41:43.707Z,40.93
2022-10-11T08:45:08.842Z,40.33
2022-10-11T08:47:36.778Z,40.09
2022-10-11T08:50:07.472Z,40.22
2022-10-11T08:52:43.224Z,40.59
2022-10-11T08:55:21.485Z,40.53
2022-10-11T08:57:53.173Z,40.47
2022-10-11T09:00:20.364Z,40.04
2022-10-11T09:03:07.580Z,39.35
2022-10-11T09:05:39.999Z,39.81
2022-10-11T09:08:09.161Z,39.43
2022-10-11T09:10:58.117Z,39.70
2022-10-11T09:14:01.491Z,38.99
2022-10-11T09:16:47.596Z,39.07
2022-10-11T09:19:37.244Z,38.82
2022-10-11T09:22:13.306Z,38.91
2022-10-11T09:24:55.308Z,39.10
2022-10-11T09:28:00.821Z,38.90
2022-10-11T09:30:23.469Z,40.36
2022-10-11T09:33:16.299Z,39.63
2022-10-11T09:35:47.018Z,39.61
2022-10-11T09:38:45.670Z,41.00
2022-10-11T09:41:26.499Z,41.50
2022-10-11T09:43:53.488Z,40.59
2022-10-11T09:46:50.001Z,40.24
2022-10-11T09:49:18.742Z,41.27
2022-10-11T09:51:50.016Z,40.37
2022-10-11T09:54:17.223Z,39.97
2022-10-11T09:56:45.237Z,40.16
2022-10-11T09:59:27.410Z,40.11
2022-10-11T10:02:12.846Z,39.01
2022-10-11T10:05:01.066Z,39.97
2022-10-11T10:07:29.193Z,39.45
2022-10-11T10:09:58.494Z,36.19
2022-10-11T10:12:30.035Z,36.55
2022-10-11T10:15:08.309Z,35.57
2022-10-11T10:17:35.879Z,36.73
2022-10-11T10:20:05.579Z,36.55
2022-10-11T10:22:34.072Z,37.49
2022-10-11T10:25:02.472Z,37.47
2022-10-11T10:27:30.354Z,36.89
2022-10-11T10:30:13.563Z,36.70
2022-10-11T10:32:58.209Z,36.17
2022-10-11T10:35:40.205Z,36.67
2022-10-11T10:38:11.279Z,36.75
2022-10-11T10:40:44.115Z,36.13
2022-10-11T10:43:17.620Z,37.00
2022-10-11T10:45:57.340Z,35.20
2022-10-11T10:49:12.005Z,34.84
2022-10-11T10:51:30.863Z,35.04
2022-10-11T10:54:06.572Z,35.57
2022-10-11T10:56:51.391Z,35.31
2022-10-11T10:59:59.700Z,35.30
2022-10-11T11:02:44.774Z,35.11
2022-10-11T11:05:40.060Z,34.76
2022-10-11T11:08:34.797Z,35.09
2022-10-11T11:11:52.463Z,35.36
2022-10-11T11:14:22.073Z,36.00
2022-10-11T11:17:09.443Z,35.58
2022-10-11T11:19:38.773Z,35.24
2022-10-11T11:22:06.789Z,35.51
2022-10-11T11:24:51.706Z,37.10
2022-10-11T11:27:38.809Z,35.48
2022-10-11T11:30:29.875Z,36.93
2022-10-11T11:33:15.841Z,37.16
2022-10-11T11:35:47.635Z,37.78
2022-10-11T11:38:27.120Z,37.58
2022-10-11T11:40:58.696Z,37.51
2022-10-11T11:43:35.364Z,36.35
2022-10-11T11:46:23.586Z,37.48
2022-10-11T11:48:51.546Z,37.47
2022-10-11T11:51:31.535Z,37.52
2022-10-11T11:54:06.254Z,37.74
2022-10-11T11:56:45.247Z,35.46
2022-10-11T11:59:29.551Z,33.98
2022-10-11T12:02:15.152Z,36.48
2022-10-11T12:04:42.799Z,37.12
2022-10-11T12:07:16.212Z,34.57
2022-10-11T12:09:50.746Z,34.41
2022-10-11T12:12:34.137Z,33.94
2022-10-11T12:15:04.168Z,33.97
2022-10-11T12:17:31.055Z,32.67
2022-10-11T12:19:59.911Z,33.16
2022-10-11T12:22:26.783Z,34.30
2022-10-11T12:25:22.187Z,34.44
2022-10-11T12:27:53.071Z,34.31
2022-10-11T12:30:48.075Z,34.50
2022-10-11T12:33:17.761Z,34.68
2022-10-11T12:35:57.005Z,34.76
2022-10-11T12:38:34.736Z,34.88
2022-10-11T12:41:10.822Z,34.66
2022-10-11T12:43:49.740Z,34.70
2022-10-11T12:46:28.549Z,34.83
2022-10-11T12:49:33.353Z,35.14
2022-10-11T12:52:18.243Z,34.26
2022-10-11T12:55:07.759Z,33.89
2022-10-11T12:57:59.288Z,33.79
2022-10-11T13:00:32.055Z,34.15
2022-10-11T13:03:04.713Z,33.02
2022-10-11T13:05:50.992Z,32.71
2022-10-11T13:08:28.765Z,33.16
2022-10-11T13:11:03.446Z,33.07
2022-10-11T13:13:38.924Z,32.50
2022-10-11T13:16:19.193Z,31.60
2022-10-11T13:18:48.282Z,30.91
2022-10-11T13:21:21.472Z,30.94
2022-10-11T13:23:54.910Z,30.75
2022-10-11T13:26:21.932Z,30.80
2022-10-11T13:28:48.987Z,30.66
2022-10-11T13:31:16.045Z,30.29
2022-10-11T13:33:43.022Z,30.93
2022-10-11T13:36:14.601Z,31.37
2022-10-11T13:38:41.592Z,31.44
2022-10-11T13:41:09.487Z,31.56
2022-10-11T13:43:36.643Z,31.65
2022-10-11T13:46:06.759Z,31.60
2022-10-11T13:48:39.373Z,30.95
2022-10-11T13:51:12.484Z,30.93
2022-10-11T13:54:02.930Z,30.99
2022-10-11T13:56:35.216Z,31.20
2022-10-11T13:59:02.269Z,31.08
2022-10-11T14:01:37.004Z,31.31
2022-10-11T14:04:05.943Z,31.12
2022-10-11T14:06:48.959Z,31.22
2022-10-11T14:09:31.153Z,31.08
2022-10-11T14:12:26.100Z,31.36
2022-10-11T14:14:53.069Z,31.73
2022-10-11T14:17:21.888Z,30.81
2022-10-11T14:20:07.362Z,31.08
2022-10-11T14:22:37.238Z,31.13
2022-10-11T14:25:04.472Z,30.98
2022-10-11T14:27:31.477Z,30.74
2022-10-11T14:30:25.115Z,31.02
2022-10-11T14:32:46.276Z,30.58
2022-10-11T14:35:21.618Z,31.02
2022-10-11T14:37:48.570Z,30.73
2022-10-11T14:40:20.439Z,30.75
2022-10-11T14:42:47.352Z,30.58
2022-10-11T14:45:14.277Z,30.92
2022-10-11T14:47:43.061Z,30.64
2022-10-11T14:50:22.955Z,30.65
2022-10-11T14:52:49.871Z,30.51
2022-10-11T14:55:16.734Z,30.44
2022-10-11T14:57:43.694Z,30.37
2022-10-11T15:00:19.855Z,30.51
2022-10-11T15:02:47.033Z,30.28
2022-10-11T15:05:13.879Z,30.52
2022-10-11T15:07:40.728Z,30.58
2022-10-11T15:10:37.860Z,30.65
2022-10-11T15:13:05.043Z,30.70
2022-10-11T15:15:35.361Z,30.87
2022-10-11T15:18:03.035Z,30.52
2022-10-11T15:20:37.459Z,30.60
2022-10-11T15:23:04.820Z,30.20
2022-10-11T15:25:31.717Z,30.46
2022-10-11T15:27:58.568Z,30.53
2022-10-11T15:30:28.168Z,30.59
2022-10-11T15:32:55.145Z,30.27
2022-10-11T15:35:22.981Z,30.57
2022-10-11T15:37:54.313Z,30.54
2022-10-11T15:40:34.795Z,30.50
2022-10-11T15:43:01.965Z,30.54
2022-10-11T15:45:29.171Z,30.79
2022-10-11T15:47:56.033Z,30.51
2022-10-11T15:50:34.710Z,30.71
2022-10-11T15:53:05.267Z,30.86
2022-10-11T15:55:33.135Z,30.88
2022-10-11T15:58:01.216Z,30.74
2022-10-11T16:00:28.325Z,31.13
2022-10-11T16:02:55.253Z,30.78
2022-10-11T16:05:24.719Z,31.31
2022-10-11T16:07:52.143Z,31.11
2022-10-11T16:10:19.502Z,31.37
2022-10-11T16:12:46.374Z,31.23
2022-10-11T16:15:13.674Z,31.51
2022-10-11T16:17:40.550Z,31.40
2022-10-11T16:20:08.013Z,31.67
2022-10-11T16:22:35.116Z,31.97
2022-10-11T16:25:02.491Z,31.83
2022-10-11T16:27:29.736Z,31.78
2022-10-11T16:29:56.805Z,31.88
2022-10-11T16:32:24.322Z,32.10
2022-10-11T16:34:51.502Z,32.12
2022-10-11T16:37:18.472Z,32.14
2022-10-11T16:39:45.628Z,32.19
2022-10-11T16:42:12.564Z,32.46
2022-10-11T16:44:39.442Z,32.52
2022-10-11T16:47:06.304Z,32.61
2022-10-11T16:49:33.226Z,32.90
2022-10-11T16:52:00.766Z,32.69
2022-10-11T16:54:27.672Z,33.03
2022-10-11T16:56:54.530Z,32.80
2022-10-11T16:59:21.348Z,33.29
2022-10-11T17:01:48.220Z,33.38
2022-10-11T17:04:15.217Z,32.93
2022-10-11T17:06:43.904Z,33.28
2022-10-11T17:09:10.941Z,33.64
2022-10-11T17:11:37.823Z,33.60
2022-10-11T17:14:05.944Z,33.60
2022-10-11T17:16:33.022Z,33.99
2022-10-11T17:18:59.960Z,33.88
2022-10-11T17:21:27.073Z,34.12
2022-10-11T17:23:53.990Z,34.02
2022-10-11T17:26:24.884Z,34.14
2022-10-11T17:28:53.295Z,34.10
2022-10-11T17:31:20.196Z,34.41
2022-10-11T17:33:47.215Z,33.94
2022-10-11T17:36:25.037Z,34.23
2022-10-11T17:38:52.222Z,34.27
2022-10-11T17:41:19.281Z,34.30
2022-10-11T17:43:46.495Z,34.72
2022-10-11T17:46:14.066Z,34.44
2022-10-11T17:48:41.028Z,34.65
2022-10-11T17:51:12.382Z,34.89
2022-10-11T17:53:39.355Z,34.72
2022-10-11T17:56:10.841Z,34.95
2022-10-11T17:58:37.961Z,35.00
2022-10-11T18:01:06.680Z,34.95
2022-10-11T18:03:33.923Z,35.17
2022-10-11T18:06:07.680Z,35.31
2022-10-11T18:08:39.901Z,35.04
2022-10-11T18:11:17.799Z,35.44
2022-10-11T18:13:47.593Z,35.47
2022-10-11T18:16:15.014Z,35.39
2022-10-11T18:18:42.409Z,35.66
2022-10-11T18:21:09.337Z,35.53
2022-10-11T18:23:38.171Z,35.76
2022-10-11T18:26:09.740Z,35.61
2022-10-11T18:28:36.801Z,35.79
2022-10-11T18:31:12.344Z,35.73
2022-10-11T18:33:40.363Z,35.93
2022-10-11T18:36:08.122Z,35.95
2022-10-11T18:38:35.246Z,36.07
2022-10-11T18:41:07.147Z,35.94
2022-10-11T18:43:34.620Z,36.04
2022-10-11T18:46:12.321Z,36.11
2022-10-11T18:48:45.865Z,36.11
2022-10-11T18:51:20.124Z,36.16
2022-10-11T18:53:47.372Z,36.38
2022-10-11T18:56:14.935Z,36.52
2022-10-11T18:58:42.122Z,36.41
2022-10-11T19:01:12.669Z,36.47
2022-10-11T19:03:39.604Z,36.34
2022-10-11T19:06:17.228Z,36.13
2022-10-11T19:08:45.034Z,36.19
2022-10-11T19:11:13.003Z,36.23
2022-10-11T19:13:40.065Z,36.36
2022-10-11T19:16:11.480Z,36.44
2022-10-11T19:18:43.201Z,36.43
2022-10-11T19:21:12.513Z,36.52
2022-10-11T19:23:40.926Z,36.74
2022-10-11T19:26:09.200Z,36.69
2022-10-11T19:28:36.619Z,36.52
2022-10-11T19:31:04.569Z,36.73
2022-10-11T19:33:32.597Z,36.63
2022-10-11T19:36:00.022Z,36.66
2022-10-11T19:38:26.870Z,36.91
2022-10-11T19:40:53.827Z,36.81
2022-10-11T19:43:20.991Z,36.94
2022-10-11T19:45:47.880Z,37.01
2022-10-11T19:48:14.814Z,37.13
2022-10-11T19:50:41.717Z,37.25
2022-10-11T19:53:08.556Z,37.27
2022-10-11T19:55:35.457Z,37.37
2022-10-11T19:58:08.086Z,37.32
2022-10-11T20:00:35.246Z,37.35
2022-10-11T20:03:02.069Z,37.35
2022-10-11T20:05:29.049Z,37.44
2022-10-11T20:07:55.905Z,37.48
2022-10-11T20:10:22.813Z,37.38
2022-10-11T20:12:49.910Z,37.64
2022-10-11T20:15:16.911Z,37.73
2022-10-11T20:17:50.085Z,37.73
2022-10-11T20:20:17.322Z,37.70
2022-10-11T20:22:44.190Z,37.52
2022-10-11T20:25:11.143Z,37.81
2022-10-11T20:27:38.047Z,37.81
2022-10-11T20:30:05.429Z,38.12
2022-10-11T20:32:32.350Z,37.97
2022-10-11T20:34:59.224Z,37.97
2022-10-11T20:37:26.165Z,38.03
2022-10-11T20:39:53.069Z,37.94
2022-10-11T20:42:20.015Z,37.96
2022-10-11T20:44:48.226Z,37.97
2022-10-11T20:47:15.289Z,38.09
2022-10-11T20:49:42.105Z,38.00
2022-10-11T20:52:08.940Z,38.13
2022-10-11T20:54:35.837Z,38.11
2022-10-11T20:57:03.025Z,38.35
2022-10-11T20:59:29.832Z,38.34
2022-10-11T21:01:56.739Z,38.56
2022-10-11T21:04:23.565Z,38.16
2022-10-11T21:06:50.390Z,38.42
2022-10-11T21:09:17.445Z,38.28
2022-10-11T21:11:44.400Z,38.39
2022-10-11T21:14:11.248Z,38.34
2022-10-11T21:16:38.108Z,38.54
2022-10-11T21:19:04.984Z,38.50
2022-10-11T21:21:31.921Z,38.42
2022-10-11T21:24:00.598Z,38.89
2022-10-11T21:26:27.767Z,38.90
2022-10-11T21:28:54.779Z,39.05
2022-10-11T21:31:21.944Z,39.08
2022-10-11T21:33:48.838Z,38.77
2022-10-11T21:36:22.506Z,38.85
2022-10-11T21:38:51.332Z,38.65
2022-10-11T21:41:22.666Z,38.60
2022-10-11T21:43:49.680Z,38.75
2022-10-11T21:46:18.618Z,38.67
2022-10-11T21:48:45.891Z,38.77
2022-10-11T21:51:25.911Z,38.80
2022-10-11T21:53:53.224Z,38.77
2022-10-11T21:56:20.055Z,38.83
2022-10-11T21:58:47.924Z,38.91
2022-10-11T22:01:14.934Z,39.03
2022-10-11T22:03:41.928Z,38.99
2022-10-11T22:06:08.876Z,39.04
2022-10-11T22:08:35.899Z,39.05
2022-10-11T22:11:02.775Z,38.98
2022-10-11T22:13:30.290Z,38.94
2022-10-11T22:15:57.196Z,39.07
2022-10-11T22:18:24.503Z,39.39
2022-10-11T22:20:51.647Z,39.24
2022-10-11T22:23:19.275Z,39.27
2022-10-11T22:25:46.447Z,39.23
2022-10-11T22:28:13.518Z,39.38
2022-10-11T22:30:40.512Z,39.38
2022-10-11T22:33:07.343Z,39.28
2022-10-11T22:35:37.715Z,39.34
2022-10-11T22:38:05.803Z,39.34
2022-10-11T22:40:32.649Z,39.41
2022-10-11T22:42:59.482Z,39.45
2022-10-11T22:45:26.411Z,39.88
2022-10-11T22:47:53.231Z,39.75
2022-10-11T22:50:20.043Z,39.51
2022-10-11T22:52:46.906Z,39.64
2022-10-11T22:55:19.596Z,39.54
2022-10-11T22:57:47.011Z,39.71
2022-10-11T23:00:14.341Z,39.70
2022-10-11T23:02:41.171Z,40.06
2022-10-11T23:05:08.184Z,39.87
2022-10-11T23:07:35.378Z,39.87
2022-10-11T23:10:02.641Z,39.78
2022-10-11T23:12:30.211Z,39.99
2022-10-11T23:14:57.047Z,39.75
2022-10-11T23:17:23.947Z,39.73
2022-10-11T23:19:50.856Z,39.92
2022-10-11T23:22:17.738Z,39.81
2022-10-11T23:24:44.674Z,39.90
2022-10-11T23:27:11.544Z,39.77
2022-10-11T23:29:40.988Z,40.07
2022-10-11T23:32:08.376Z,40.00
2022-10-11T23:34:35.330Z,40.01
2022-10-11T23:37:02.376Z,40.08
2022-10-11T23:39:29.287Z,39.96
2022-10-11T23:41:56.124Z,40.14
2022-10-11T23:44:22.956Z,39.91
2022-10-11T23:46:49.889Z,40.09
2022-10-11T23:49:16.731Z,40.04
2022-10-11T23:51:43.550Z,39.97
2022-10-11T23:54:10.462Z,40.27
2022-10-11T23:56:37.518Z,40.06
2022-10-11T23:59:04.336Z,40.08
